sensor_id;sensor_type;location;lat;lon;timestamp;P1;durP1;ratioP1;P2;durP2;ratioP2
11763;SDS011;5939;56.522;14.950;2023-07-31T00:00:10;2.47;;;1.10;;
11763;SDS011;5939;56.522;14.950;2023-07-31T00:02:36;3.53;;;1.37;;
11763;SDS011;5939;56.522;14.950;2023-07-31T00:05:02;2.33;;;1.40;;
11763;SDS011;5939;56.522;14.950;2023-07-31T00:07:28;1.63;;;1.27;;
11763;SDS011;5939;56.522;14.950;2023-07-31T00:09:53;3.10;;;1.20;;
11763;SDS011;5939;56.522;14.950;2023-07-31T00:12:19;1.87;;;1.23;;
11763;SDS011;5939;56.522;14.950;2023-07-31T00:14:45;1.10;;;1.00;;
11763;SDS011;5939;56.522;14.950;2023-07-31T00:17:11;1.17;;;1.07;;
11763;SDS011;5939;56.522;14.950;2023-07-31T00:19:37;1.33;;;1.10;;
11763;SDS011;5939;56.522;14.950;2023-07-31T00:22:02;3.63;;;1.20;;
11763;SDS011;5939;56.522;14.950;2023-07-31T00:24:28;2.57;;;1.40;;
11763;SDS011;5939;56.522;14.950;2023-07-31T00:26:54;1.77;;;1.20;;
11763;SDS011;5939;56.522;14.950;2023-07-31T00:29:20;2.00;;;1.13;;
11763;SDS011;5939;56.522;14.950;2023-07-31T00:31:45;1.73;;;1.10;;
11763;SDS011;5939;56.522;14.950;2023-07-31T00:34:11;1.87;;;1.40;;
11763;SDS011;5939;56.522;14.950;2023-07-31T00:36:37;1.10;;;1.00;;
11763;SDS011;5939;56.522;14.950;2023-07-31T00:39:02;2.00;;;1.20;;
11763;SDS011;5939;56.522;14.950;2023-07-31T00:41:29;1.80;;;1.20;;
11763;SDS011;5939;56.522;14.950;2023-07-31T00:43:55;2.03;;;1.20;;
11763;SDS011;5939;56.522;14.950;2023-07-31T00:46:20;1.73;;;1.30;;
11763;SDS011;5939;56.522;14.950;2023-07-31T00:48:46;1.20;;;1.00;;
11763;SDS011;5939;56.522;14.950;2023-07-31T00:51:12;2.13;;;1.23;;
11763;SDS011;5939;56.522;14.950;2023-07-31T00:53:38;1.10;;;1.00;;
11763;SDS011;5939;56.522;14.950;2023-07-31T00:56:05;2.87;;;1.20;;
11763;SDS011;5939;56.522;14.950;2023-07-31T00:58:31;2.03;;;1.33;;
11763;SDS011;5939;56.522;14.950;2023-07-31T01:00:57;1.47;;;1.30;;
11763;SDS011;5939;56.522;14.950;2023-07-31T01:03:22;2.20;;;1.30;;
11763;SDS011;5939;56.522;14.950;2023-07-31T01:05:58;2.13;;;1.30;;
11763;SDS011;5939;56.522;14.950;2023-07-31T01:13:55;1.50;;;1.20;;
11763;SDS011;5939;56.522;14.950;2023-07-31T01:16:21;1.47;;;1.20;;
11763;SDS011;5939;56.522;14.950;2023-07-31T01:18:48;2.90;;;1.47;;
11763;SDS011;5939;56.522;14.950;2023-07-31T01:26:41;2.20;;;1.43;;
11763;SDS011;5939;56.522;14.950;2023-07-31T01:29:23;2.17;;;1.50;;
11763;SDS011;5939;56.522;14.950;2023-07-31T01:32:02;1.43;;;1.20;;
11763;SDS011;5939;56.522;14.950;2023-07-31T01:34:29;1.60;;;1.20;;
11763;SDS011;5939;56.522;14.950;2023-07-31T01:36:56;2.17;;;1.20;;
11763;SDS011;5939;56.522;14.950;2023-07-31T01:39:23;4.40;;;1.40;;
11763;SDS011;5939;56.522;14.950;2023-07-31T01:41:49;1.70;;;1.30;;
11763;SDS011;5939;56.522;14.950;2023-07-31T01:44:14;1.53;;;1.07;;
11763;SDS011;5939;56.522;14.950;2023-07-31T01:46:40;1.67;;;1.20;;
11763;SDS011;5939;56.522;14.950;2023-07-31T01:49:06;1.37;;;1.20;;
11763;SDS011;5939;56.522;14.950;2023-07-31T01:51:31;1.60;;;1.13;;
11763;SDS011;5939;56.522;14.950;2023-07-31T01:54:00;2.40;;;1.50;;
11763;SDS011;5939;56.522;14.950;2023-07-31T01:56:26;3.17;;;1.73;;
11763;SDS011;5939;56.522;14.950;2023-07-31T01:58:52;1.50;;;1.30;;
11763;SDS011;5939;56.522;14.950;2023-07-31T02:01:18;2.43;;;1.10;;
11763;SDS011;5939;56.522;14.950;2023-07-31T02:03:44;1.87;;;1.10;;
11763;SDS011;5939;56.522;14.950;2023-07-31T02:06:09;2.60;;;1.20;;
11763;SDS011;5939;56.522;14.950;2023-07-31T02:08:35;2.53;;;1.30;;
11763;SDS011;5939;56.522;14.950;2023-07-31T02:11:00;1.20;;;1.10;;
11763;SDS011;5939;56.522;14.950;2023-07-31T02:13:26;1.23;;;1.13;;
11763;SDS011;5939;56.522;14.950;2023-07-31T02:15:52;1.37;;;1.00;;
11763;SDS011;5939;56.522;14.950;2023-07-31T02:18:17;2.80;;;1.20;;
11763;SDS011;5939;56.522;14.950;2023-07-31T02:20:43;1.37;;;1.27;;
11763;SDS011;5939;56.522;14.950;2023-07-31T02:23:11;2.20;;;1.20;;
11763;SDS011;5939;56.522;14.950;2023-07-31T02:25:36;1.90;;;1.47;;
11763;SDS011;5939;56.522;14.950;2023-07-31T02:28:02;1.13;;;1.03;;
11763;SDS011;5939;56.522;14.950;2023-07-31T02:30:28;2.27;;;1.40;;
11763;SDS011;5939;56.522;14.950;2023-07-31T02:32:53;2.30;;;1.20;;
11763;SDS011;5939;56.522;14.950;2023-07-31T02:35:19;1.70;;;1.20;;
11763;SDS011;5939;56.522;14.950;2023-07-31T02:37:45;1.30;;;1.20;;
11763;SDS011;5939;56.522;14.950;2023-07-31T02:40:10;1.27;;;1.17;;
11763;SDS011;5939;56.522;14.950;2023-07-31T02:42:36;2.93;;;1.30;;
11763;SDS011;5939;56.522;14.950;2023-07-31T02:45:02;2.60;;;1.30;;
11763;SDS011;5939;56.522;14.950;2023-07-31T02:47:28;2.00;;;1.30;;
11763;SDS011;5939;56.522;14.950;2023-07-31T02:49:53;2.70;;;1.33;;
11763;SDS011;5939;56.522;14.950;2023-07-31T02:52:20;2.53;;;1.30;;
11763;SDS011;5939;56.522;14.950;2023-07-31T02:54:46;1.60;;;1.10;;
11763;SDS011;5939;56.522;14.950;2023-07-31T02:57:12;1.97;;;1.33;;
11763;SDS011;5939;56.522;14.950;2023-07-31T02:59:38;3.00;;;1.57;;
11763;SDS011;5939;56.522;14.950;2023-07-31T03:02:03;2.47;;;1.43;;
11763;SDS011;5939;56.522;14.950;2023-07-31T03:04:29;2.60;;;1.20;;
11763;SDS011;5939;56.522;14.950;2023-07-31T03:06:54;3.10;;;1.50;;
11763;SDS011;5939;56.522;14.950;2023-07-31T03:09:20;1.50;;;1.20;;
11763;SDS011;5939;56.522;14.950;2023-07-31T03:11:46;1.43;;;1.30;;
11763;SDS011;5939;56.522;14.950;2023-07-31T03:14:11;1.93;;;1.30;;
11763;SDS011;5939;56.522;14.950;2023-07-31T03:16:37;3.60;;;1.50;;
11763;SDS011;5939;56.522;14.950;2023-07-31T03:19:02;2.13;;;1.10;;
11763;SDS011;5939;56.522;14.950;2023-07-31T03:21:28;2.27;;;1.73;;
11763;SDS011;5939;56.522;14.950;2023-07-31T03:23:54;1.37;;;1.10;;
11763;SDS011;5939;56.522;14.950;2023-07-31T03:26:19;2.93;;;1.60;;
11763;SDS011;5939;56.522;14.950;2023-07-31T03:28:45;2.27;;;1.30;;
11763;SDS011;5939;56.522;14.950;2023-07-31T03:31:10;2.03;;;1.40;;
11763;SDS011;5939;56.522;14.950;2023-07-31T03:33:36;2.33;;;1.40;;
11763;SDS011;5939;56.522;14.950;2023-07-31T03:36:02;2.30;;;1.57;;
11763;SDS011;5939;56.522;14.950;2023-07-31T03:38:28;2.73;;;1.60;;
11763;SDS011;5939;56.522;14.950;2023-07-31T03:40:54;2.27;;;1.80;;
11763;SDS011;5939;56.522;14.950;2023-07-31T03:43:19;1.70;;;1.47;;
11763;SDS011;5939;56.522;14.950;2023-07-31T03:45:45;2.43;;;1.70;;
11763;SDS011;5939;56.522;14.950;2023-07-31T03:48:11;1.83;;;1.63;;
11763;SDS011;5939;56.522;14.950;2023-07-31T03:50:37;2.10;;;1.50;;
11763;SDS011;5939;56.522;14.950;2023-07-31T03:53:02;1.60;;;1.43;;
11763;SDS011;5939;56.522;14.950;2023-07-31T03:55:28;3.00;;;1.77;;
11763;SDS011;5939;56.522;14.950;2023-07-31T03:57:53;2.00;;;1.40;;
11763;SDS011;5939;56.522;14.950;2023-07-31T04:00:19;2.07;;;1.63;;
11763;SDS011;5939;56.522;14.950;2023-07-31T04:02:46;2.70;;;1.60;;
11763;SDS011;5939;56.522;14.950;2023-07-31T04:05:12;1.97;;;1.50;;
11763;SDS011;5939;56.522;14.950;2023-07-31T04:07:37;2.27;;;1.70;;
11763;SDS011;5939;56.522;14.950;2023-07-31T04:10:03;2.13;;;1.83;;
11763;SDS011;5939;56.522;14.950;2023-07-31T04:12:29;1.80;;;1.70;;
11763;SDS011;5939;56.522;14.950;2023-07-31T04:14:54;2.53;;;1.70;;
11763;SDS011;5939;56.522;14.950;2023-07-31T04:17:20;2.57;;;1.77;;
11763;SDS011;5939;56.522;14.950;2023-07-31T04:19:46;2.40;;;1.77;;
11763;SDS011;5939;56.522;14.950;2023-07-31T04:22:11;2.93;;;1.57;;
11763;SDS011;5939;56.522;14.950;2023-07-31T04:24:37;2.13;;;1.70;;
11763;SDS011;5939;56.522;14.950;2023-07-31T04:27:03;2.73;;;1.90;;
11763;SDS011;5939;56.522;14.950;2023-07-31T04:29:28;2.63;;;1.70;;
11763;SDS011;5939;56.522;14.950;2023-07-31T04:31:54;2.47;;;2.00;;
11763;SDS011;5939;56.522;14.950;2023-07-31T04:34:20;4.70;;;1.80;;
11763;SDS011;5939;56.522;14.950;2023-07-31T04:36:45;3.43;;;1.93;;
11763;SDS011;5939;56.522;14.950;2023-07-31T04:39:11;3.97;;;1.73;;
11763;SDS011;5939;56.522;14.950;2023-07-31T04:41:36;3.90;;;1.93;;
11763;SDS011;5939;56.522;14.950;2023-07-31T04:44:02;3.63;;;1.87;;
11763;SDS011;5939;56.522;14.950;2023-07-31T04:46:30;2.50;;;1.83;;
11763;SDS011;5939;56.522;14.950;2023-07-31T04:48:56;2.07;;;1.60;;
11763;SDS011;5939;56.522;14.950;2023-07-31T04:51:22;4.27;;;2.17;;
11763;SDS011;5939;56.522;14.950;2023-07-31T04:53:48;2.30;;;1.70;;
11763;SDS011;5939;56.522;14.950;2023-07-31T04:56:14;2.40;;;1.80;;
11763;SDS011;5939;56.522;14.950;2023-07-31T04:58:40;4.13;;;1.90;;
11763;SDS011;5939;56.522;14.950;2023-07-31T05:01:06;3.80;;;1.80;;
11763;SDS011;5939;56.522;14.950;2023-07-31T05:03:31;3.60;;;2.07;;
11763;SDS011;5939;56.522;14.950;2023-07-31T05:05:57;3.63;;;2.00;;
11763;SDS011;5939;56.522;14.950;2023-07-31T05:08:23;2.70;;;1.97;;
11763;SDS011;5939;56.522;14.950;2023-07-31T05:10:48;2.63;;;1.80;;
11763;SDS011;5939;56.522;14.950;2023-07-31T05:13:14;3.70;;;2.20;;
11763;SDS011;5939;56.522;14.950;2023-07-31T05:15:40;5.03;;;2.30;;
11763;SDS011;5939;56.522;14.950;2023-07-31T05:18:06;3.83;;;2.03;;
11763;SDS011;5939;56.522;14.950;2023-07-31T05:20:32;4.43;;;1.83;;
11763;SDS011;5939;56.522;14.950;2023-07-31T05:22:57;3.97;;;2.10;;
11763;SDS011;5939;56.522;14.950;2023-07-31T05:25:23;3.87;;;1.80;;
11763;SDS011;5939;56.522;14.950;2023-07-31T05:27:49;3.40;;;2.03;;
11763;SDS011;5939;56.522;14.950;2023-07-31T05:30:14;2.03;;;1.83;;
11763;SDS011;5939;56.522;14.950;2023-07-31T05:32:40;3.10;;;1.80;;
11763;SDS011;5939;56.522;14.950;2023-07-31T05:35:06;4.27;;;2.10;;
11763;SDS011;5939;56.522;14.950;2023-07-31T05:37:31;4.37;;;1.97;;
11763;SDS011;5939;56.522;14.950;2023-07-31T05:39:57;3.70;;;2.00;;
11763;SDS011;5939;56.522;14.950;2023-07-31T05:42:23;3.13;;;2.00;;
11763;SDS011;5939;56.522;14.950;2023-07-31T05:44:49;3.97;;;1.90;;
11763;SDS011;5939;56.522;14.950;2023-07-31T05:47:14;3.63;;;1.90;;
11763;SDS011;5939;56.522;14.950;2023-07-31T05:49:40;2.63;;;1.73;;
11763;SDS011;5939;56.522;14.950;2023-07-31T05:52:06;3.80;;;2.00;;
11763;SDS011;5939;56.522;14.950;2023-07-31T05:54:32;4.17;;;2.20;;
11763;SDS011;5939;56.522;14.950;2023-07-31T05:56:58;3.50;;;2.03;;
11763;SDS011;5939;56.522;14.950;2023-07-31T05:59:24;4.20;;;2.03;;
11763;SDS011;5939;56.522;14.950;2023-07-31T06:01:49;3.90;;;2.20;;
11763;SDS011;5939;56.522;14.950;2023-07-31T06:04:15;5.13;;;2.13;;
11763;SDS011;5939;56.522;14.950;2023-07-31T06:06:41;4.23;;;2.00;;
11763;SDS011;5939;56.522;14.950;2023-07-31T06:09:06;3.87;;;2.03;;
11763;SDS011;5939;56.522;14.950;2023-07-31T06:11:32;4.67;;;2.37;;
11763;SDS011;5939;56.522;14.950;2023-07-31T06:13:58;3.73;;;2.17;;
11763;SDS011;5939;56.522;14.950;2023-07-31T06:16:24;2.87;;;1.90;;
11763;SDS011;5939;56.522;14.950;2023-07-31T06:18:50;4.47;;;2.20;;
11763;SDS011;5939;56.522;14.950;2023-07-31T06:21:16;5.03;;;2.33;;
11763;SDS011;5939;56.522;14.950;2023-07-31T06:23:42;3.40;;;1.93;;
11763;SDS011;5939;56.522;14.950;2023-07-31T06:26:08;3.77;;;2.03;;
11763;SDS011;5939;56.522;14.950;2023-07-31T06:28:33;3.50;;;1.90;;
11763;SDS011;5939;56.522;14.950;2023-07-31T06:30:59;3.47;;;2.47;;
11763;SDS011;5939;56.522;14.950;2023-07-31T06:33:25;3.00;;;2.20;;
11763;SDS011;5939;56.522;14.950;2023-07-31T06:35:51;2.60;;;1.93;;
11763;SDS011;5939;56.522;14.950;2023-07-31T06:38:35;4.40;;;1.90;;
11763;SDS011;5939;56.522;14.950;2023-07-31T06:41:02;4.37;;;2.20;;
11763;SDS011;5939;56.522;14.950;2023-07-31T06:43:29;4.70;;;2.20;;
11763;SDS011;5939;56.522;14.950;2023-07-31T06:45:54;2.63;;;1.90;;
11763;SDS011;5939;56.522;14.950;2023-07-31T06:48:20;3.47;;;1.90;;
11763;SDS011;5939;56.522;14.950;2023-07-31T06:50:45;3.57;;;2.17;;
11763;SDS011;5939;56.522;14.950;2023-07-31T06:53:11;3.20;;;1.70;;
11763;SDS011;5939;56.522;14.950;2023-07-31T06:55:37;3.47;;;2.30;;
11763;SDS011;5939;56.522;14.950;2023-07-31T06:58:02;3.10;;;1.70;;
11763;SDS011;5939;56.522;14.950;2023-07-31T07:00:28;3.73;;;1.87;;
11763;SDS011;5939;56.522;14.950;2023-07-31T07:02:54;4.73;;;2.10;;
11763;SDS011;5939;56.522;14.950;2023-07-31T07:05:19;5.47;;;2.00;;
11763;SDS011;5939;56.522;14.950;2023-07-31T07:07:45;2.90;;;1.90;;
11763;SDS011;5939;56.522;14.950;2023-07-31T07:10:11;4.67;;;2.17;;
11763;SDS011;5939;56.522;14.950;2023-07-31T07:12:37;4.50;;;2.10;;
11763;SDS011;5939;56.522;14.950;2023-07-31T07:15:02;5.97;;;1.77;;
11763;SDS011;5939;56.522;14.950;2023-07-31T07:17:29;4.03;;;1.73;;
11763;SDS011;5939;56.522;14.950;2023-07-31T07:19:58;5.33;;;2.00;;
11763;SDS011;5939;56.522;14.950;2023-07-31T07:22:24;5.70;;;1.90;;
11763;SDS011;5939;56.522;14.950;2023-07-31T07:24:51;2.80;;;1.80;;
11763;SDS011;5939;56.522;14.950;2023-07-31T07:27:18;5.17;;;2.30;;
11763;SDS011;5939;56.522;14.950;2023-07-31T07:29:43;4.23;;;2.10;;
11763;SDS011;5939;56.522;14.950;2023-07-31T07:32:10;5.40;;;2.03;;
11763;SDS011;5939;56.522;14.950;2023-07-31T07:34:36;5.33;;;1.80;;
11763;SDS011;5939;56.522;14.950;2023-07-31T07:37:02;4.83;;;2.03;;
11763;SDS011;5939;56.522;14.950;2023-07-31T07:39:28;7.57;;;2.43;;
11763;SDS011;5939;56.522;14.950;2023-07-31T07:41:54;3.77;;;1.77;;
11763;SDS011;5939;56.522;14.950;2023-07-31T07:44:19;4.53;;;1.93;;
11763;SDS011;5939;56.522;14.950;2023-07-31T07:46:45;3.13;;;1.73;;
11763;SDS011;5939;56.522;14.950;2023-07-31T07:49:11;5.47;;;2.37;;
11763;SDS011;5939;56.522;14.950;2023-07-31T07:51:36;4.93;;;2.13;;
11763;SDS011;5939;56.522;14.950;2023-07-31T07:54:02;5.63;;;2.10;;
11763;SDS011;5939;56.522;14.950;2023-07-31T07:56:28;5.33;;;2.10;;
11763;SDS011;5939;56.522;14.950;2023-07-31T07:58:54;4.90;;;2.23;;
11763;SDS011;5939;56.522;14.950;2023-07-31T08:01:20;3.63;;;1.90;;
11763;SDS011;5939;56.522;14.950;2023-07-31T08:03:46;4.97;;;2.23;;
11763;SDS011;5939;56.522;14.950;2023-07-31T08:06:12;5.90;;;1.87;;
11763;SDS011;5939;56.522;14.950;2023-07-31T08:08:38;4.30;;;2.00;;
11763;SDS011;5939;56.522;14.950;2023-07-31T08:11:03;6.67;;;2.43;;
11763;SDS011;5939;56.522;14.950;2023-07-31T08:13:29;3.87;;;2.00;;
11763;SDS011;5939;56.522;14.950;2023-07-31T08:15:55;7.70;;;2.10;;
11763;SDS011;5939;56.522;14.950;2023-07-31T08:18:20;3.97;;;1.80;;
11763;SDS011;5939;56.522;14.950;2023-07-31T08:20:46;3.93;;;1.80;;
11763;SDS011;5939;56.522;14.950;2023-07-31T08:23:12;5.20;;;1.67;;
11763;SDS011;5939;56.522;14.950;2023-07-31T08:25:38;3.90;;;1.60;;
11763;SDS011;5939;56.522;14.950;2023-07-31T08:28:04;4.27;;;1.80;;
11763;SDS011;5939;56.522;14.950;2023-07-31T08:30:30;5.20;;;2.20;;
11763;SDS011;5939;56.522;14.950;2023-07-31T08:32:56;7.40;;;2.37;;
11763;SDS011;5939;56.522;14.950;2023-07-31T08:35:22;6.80;;;1.83;;
11763;SDS011;5939;56.522;14.950;2023-07-31T08:37:49;6.03;;;2.43;;
11763;SDS011;5939;56.522;14.950;2023-07-31T08:40:14;7.10;;;2.20;;
11763;SDS011;5939;56.522;14.950;2023-07-31T08:42:43;5.10;;;1.87;;
11763;SDS011;5939;56.522;14.950;2023-07-31T08:45:12;4.13;;;1.77;;
11763;SDS011;5939;56.522;14.950;2023-07-31T08:47:41;6.13;;;1.80;;
11763;SDS011;5939;56.522;14.950;2023-07-31T08:50:09;4.07;;;1.80;;
11763;SDS011;5939;56.522;14.950;2023-07-31T08:52:37;4.90;;;2.17;;
11763;SDS011;5939;56.522;14.950;2023-07-31T08:55:03;5.73;;;1.93;;
11763;SDS011;5939;56.522;14.950;2023-07-31T08:57:29;4.83;;;1.70;;
11763;SDS011;5939;56.522;14.950;2023-07-31T08:59:56;4.07;;;1.70;;
11763;SDS011;5939;56.522;14.950;2023-07-31T09:02:22;3.73;;;1.60;;
11763;SDS011;5939;56.522;14.950;2023-07-31T09:04:52;4.20;;;1.80;;
11763;SDS011;5939;56.522;14.950;2023-07-31T09:07:18;3.27;;;1.80;;
11763;SDS011;5939;56.522;14.950;2023-07-31T09:09:43;3.73;;;1.70;;
11763;SDS011;5939;56.522;14.950;2023-07-31T09:12:11;4.63;;;1.70;;
11763;SDS011;5939;56.522;14.950;2023-07-31T09:14:37;2.47;;;1.47;;
11763;SDS011;5939;56.522;14.950;2023-07-31T09:17:04;3.73;;;1.80;;
11763;SDS011;5939;56.522;14.950;2023-07-31T09:19:33;5.03;;;1.70;;
11763;SDS011;5939;56.522;14.950;2023-07-31T09:22:02;4.83;;;1.63;;
11763;SDS011;5939;56.522;14.950;2023-07-31T09:24:28;6.50;;;1.93;;
11763;SDS011;5939;56.522;14.950;2023-07-31T09:26:56;2.57;;;1.50;;
11763;SDS011;5939;56.522;14.950;2023-07-31T09:29:26;4.33;;;1.50;;
11763;SDS011;5939;56.522;14.950;2023-07-31T09:31:53;5.20;;;1.90;;
11763;SDS011;5939;56.522;14.950;2023-07-31T09:34:20;2.93;;;1.60;;
11763;SDS011;5939;56.522;14.950;2023-07-31T09:36:52;2.93;;;1.50;;
11763;SDS011;5939;56.522;14.950;2023-07-31T09:39:18;3.90;;;1.50;;
11763;SDS011;5939;56.522;14.950;2023-07-31T09:41:46;3.73;;;1.73;;
11763;SDS011;5939;56.522;14.950;2023-07-31T09:44:18;3.60;;;1.77;;
11763;SDS011;5939;56.522;14.950;2023-07-31T09:46:43;4.77;;;1.93;;
11763;SDS011;5939;56.522;14.950;2023-07-31T09:49:10;2.57;;;1.70;;
11763;SDS011;5939;56.522;14.950;2023-07-31T09:51:38;3.17;;;1.50;;
11763;SDS011;5939;56.522;14.950;2023-07-31T09:54:12;4.70;;;1.60;;
11763;SDS011;5939;56.522;14.950;2023-07-31T09:56:45;3.30;;;1.50;;
11763;SDS011;5939;56.522;14.950;2023-07-31T09:59:13;3.47;;;1.50;;
11763;SDS011;5939;56.522;14.950;2023-07-31T10:01:40;5.80;;;1.67;;
11763;SDS011;5939;56.522;14.950;2023-07-31T10:04:10;3.03;;;1.50;;
11763;SDS011;5939;56.522;14.950;2023-07-31T10:06:36;3.93;;;1.53;;
11763;SDS011;5939;56.522;14.950;2023-07-31T10:09:08;3.73;;;1.77;;
11763;SDS011;5939;56.522;14.950;2023-07-31T10:11:41;4.00;;;1.53;;
11763;SDS011;5939;56.522;14.950;2023-07-31T10:14:09;2.33;;;1.53;;
11763;SDS011;5939;56.522;14.950;2023-07-31T10:16:37;2.73;;;1.50;;
11763;SDS011;5939;56.522;14.950;2023-07-31T10:19:03;4.83;;;1.60;;
11763;SDS011;5939;56.522;14.950;2023-07-31T10:21:31;3.50;;;1.60;;
11763;SDS011;5939;56.522;14.950;2023-07-31T10:24:00;3.37;;;1.63;;
11763;SDS011;5939;56.522;14.950;2023-07-31T10:26:27;5.03;;;1.90;;
11763;SDS011;5939;56.522;14.950;2023-07-31T10:28:54;4.80;;;1.80;;
11763;SDS011;5939;56.522;14.950;2023-07-31T10:31:21;4.83;;;2.00;;
11763;SDS011;5939;56.522;14.950;2023-07-31T10:33:47;3.90;;;1.63;;
11763;SDS011;5939;56.522;14.950;2023-07-31T10:36:13;4.17;;;1.70;;
11763;SDS011;5939;56.522;14.950;2023-07-31T10:38:42;3.33;;;1.53;;
11763;SDS011;5939;56.522;14.950;2023-07-31T10:41:11;3.67;;;1.40;;
11763;SDS011;5939;56.522;14.950;2023-07-31T10:43:37;3.10;;;2.00;;
11763;SDS011;5939;56.522;14.950;2023-07-31T10:46:06;6.40;;;1.90;;
11763;SDS011;5939;56.522;14.950;2023-07-31T10:48:34;2.70;;;1.60;;
11763;SDS011;5939;56.522;14.950;2023-07-31T10:51:02;3.43;;;1.53;;
11763;SDS011;5939;56.522;14.950;2023-07-31T10:53:36;3.73;;;1.63;;
11763;SDS011;5939;56.522;14.950;2023-07-31T10:56:06;2.93;;;1.93;;
11763;SDS011;5939;56.522;14.950;2023-07-31T10:58:34;3.87;;;1.50;;
11763;SDS011;5939;56.522;14.950;2023-07-31T11:01:01;4.13;;;1.50;;
11763;SDS011;5939;56.522;14.950;2023-07-31T11:03:42;2.70;;;1.13;;
11763;SDS011;5939;56.522;14.950;2023-07-31T11:06:13;3.53;;;1.70;;
11763;SDS011;5939;56.522;14.950;2023-07-31T11:08:49;2.10;;;1.33;;
11763;SDS011;5939;56.522;14.950;2023-07-31T11:11:17;3.50;;;1.80;;
11763;SDS011;5939;56.522;14.950;2023-07-31T11:13:50;2.57;;;1.50;;
11763;SDS011;5939;56.522;14.950;2023-07-31T11:16:18;2.90;;;1.57;;
11763;SDS011;5939;56.522;14.950;2023-07-31T11:18:46;3.97;;;1.60;;
11763;SDS011;5939;56.522;14.950;2023-07-31T11:21:17;1.83;;;1.60;;
11763;SDS011;5939;56.522;14.950;2023-07-31T11:23:47;1.97;;;1.33;;
11763;SDS011;5939;56.522;14.950;2023-07-31T11:26:14;3.57;;;1.67;;
11763;SDS011;5939;56.522;14.950;2023-07-31T11:28:40;2.40;;;1.43;;
11763;SDS011;5939;56.522;14.950;2023-07-31T11:31:09;3.67;;;1.40;;
11763;SDS011;5939;56.522;14.950;2023-07-31T11:33:35;1.97;;;1.23;;
11763;SDS011;5939;56.522;14.950;2023-07-31T11:36:02;3.73;;;1.57;;
11763;SDS011;5939;56.522;14.950;2023-07-31T11:38:31;2.17;;;1.20;;
11763;SDS011;5939;56.522;14.950;2023-07-31T11:40:58;2.37;;;1.40;;
11763;SDS011;5939;56.522;14.950;2023-07-31T11:43:26;1.73;;;1.20;;
11763;SDS011;5939;56.522;14.950;2023-07-31T11:45:52;3.27;;;1.77;;
11763;SDS011;5939;56.522;14.950;2023-07-31T11:50:47;2.43;;;1.60;;
11763;SDS011;5939;56.522;14.950;2023-07-31T11:53:15;1.50;;;1.30;;
11763;SDS011;5939;56.522;14.950;2023-07-31T11:55:44;2.33;;;1.53;;
11763;SDS011;5939;56.522;14.950;2023-07-31T11:58:10;2.80;;;1.50;;
11763;SDS011;5939;56.522;14.950;2023-07-31T12:00:36;3.63;;;1.70;;
11763;SDS011;5939;56.522;14.950;2023-07-31T12:03:02;2.97;;;1.57;;
11763;SDS011;5939;56.522;14.950;2023-07-31T12:05:28;2.20;;;1.30;;
11763;SDS011;5939;56.522;14.950;2023-07-31T12:07:55;3.30;;;1.43;;
11763;SDS011;5939;56.522;14.950;2023-07-31T12:10:32;2.90;;;1.80;;
11763;SDS011;5939;56.522;14.950;2023-07-31T12:15:37;3.63;;;1.47;;
11763;SDS011;5939;56.522;14.950;2023-07-31T12:18:05;2.47;;;1.50;;
11763;SDS011;5939;56.522;14.950;2023-07-31T12:20:32;3.83;;;1.53;;
11763;SDS011;5939;56.522;14.950;2023-07-31T12:22:58;3.13;;;1.50;;
11763;SDS011;5939;56.522;14.950;2023-07-31T12:25:33;2.60;;;1.70;;
11763;SDS011;5939;56.522;14.950;2023-07-31T12:28:04;2.97;;;1.67;;
11763;SDS011;5939;56.522;14.950;2023-07-31T12:30:33;2.63;;;1.30;;
11763;SDS011;5939;56.522;14.950;2023-07-31T12:33:12;2.67;;;1.70;;
11763;SDS011;5939;56.522;14.950;2023-07-31T12:35:46;3.13;;;1.47;;
11763;SDS011;5939;56.522;14.950;2023-07-31T12:38:12;3.20;;;1.40;;
11763;SDS011;5939;56.522;14.950;2023-07-31T12:40:39;3.20;;;1.57;;
11763;SDS011;5939;56.522;14.950;2023-07-31T12:43:06;3.07;;;1.50;;
11763;SDS011;5939;56.522;14.950;2023-07-31T12:45:32;2.90;;;1.30;;
11763;SDS011;5939;56.522;14.950;2023-07-31T12:47:59;3.60;;;1.80;;
11763;SDS011;5939;56.522;14.950;2023-07-31T12:50:25;2.90;;;1.70;;
11763;SDS011;5939;56.522;14.950;2023-07-31T12:52:53;2.07;;;1.57;;
11763;SDS011;5939;56.522;14.950;2023-07-31T12:55:19;1.67;;;1.57;;
11763;SDS011;5939;56.522;14.950;2023-07-31T12:57:46;1.97;;;1.43;;
11763;SDS011;5939;56.522;14.950;2023-07-31T13:00:12;2.57;;;1.40;;
11763;SDS011;5939;56.522;14.950;2023-07-31T13:02:38;3.00;;;1.60;;
11763;SDS011;5939;56.522;14.950;2023-07-31T13:05:04;3.00;;;1.50;;
11763;SDS011;5939;56.522;14.950;2023-07-31T13:07:30;4.23;;;1.90;;
11763;SDS011;5939;56.522;14.950;2023-07-31T13:09:55;2.73;;;1.40;;
11763;SDS011;5939;56.522;14.950;2023-07-31T13:12:21;2.37;;;1.27;;
11763;SDS011;5939;56.522;14.950;2023-07-31T13:14:47;3.27;;;1.40;;
11763;SDS011;5939;56.522;14.950;2023-07-31T13:17:12;3.50;;;1.50;;
11763;SDS011;5939;56.522;14.950;2023-07-31T13:19:38;1.70;;;1.20;;
11763;SDS011;5939;56.522;14.950;2023-07-31T13:22:03;2.87;;;1.40;;
11763;SDS011;5939;56.522;14.950;2023-07-31T13:24:29;2.83;;;1.37;;
11763;SDS011;5939;56.522;14.950;2023-07-31T13:26:55;2.33;;;1.40;;
11763;SDS011;5939;56.522;14.950;2023-07-31T13:29:22;3.00;;;1.50;;
11763;SDS011;5939;56.522;14.950;2023-07-31T13:31:48;2.93;;;1.20;;
11763;SDS011;5939;56.522;14.950;2023-07-31T13:34:14;2.47;;;1.20;;
11763;SDS011;5939;56.522;14.950;2023-07-31T13:36:40;2.63;;;1.30;;
11763;SDS011;5939;56.522;14.950;2023-07-31T13:39:06;3.83;;;1.50;;
11763;SDS011;5939;56.522;14.950;2023-07-31T13:41:32;2.37;;;1.60;;
11763;SDS011;5939;56.522;14.950;2023-07-31T13:43:58;2.13;;;1.50;;
11763;SDS011;5939;56.522;14.950;2023-07-31T13:46:23;2.47;;;1.50;;
11763;SDS011;5939;56.522;14.950;2023-07-31T13:48:50;2.13;;;1.60;;
11763;SDS011;5939;56.522;14.950;2023-07-31T13:51:16;2.90;;;1.60;;
11763;SDS011;5939;56.522;14.950;2023-07-31T13:53:42;2.83;;;1.40;;
11763;SDS011;5939;56.522;14.950;2023-07-31T13:56:07;3.23;;;1.60;;
11763;SDS011;5939;56.522;14.950;2023-07-31T13:58:33;3.27;;;1.60;;
11763;SDS011;5939;56.522;14.950;2023-07-31T14:00:59;1.80;;;1.23;;
11763;SDS011;5939;56.522;14.950;2023-07-31T14:03:24;2.97;;;1.50;;
11763;SDS011;5939;56.522;14.950;2023-07-31T14:05:51;1.67;;;1.50;;
11763;SDS011;5939;56.522;14.950;2023-07-31T14:08:17;1.87;;;1.40;;
11763;SDS011;5939;56.522;14.950;2023-07-31T14:10:43;3.87;;;1.37;;
11763;SDS011;5939;56.522;14.950;2023-07-31T14:13:08;3.93;;;1.37;;
11763;SDS011;5939;56.522;14.950;2023-07-31T14:15:34;1.40;;;1.23;;
11763;SDS011;5939;56.522;14.950;2023-07-31T14:18:01;2.50;;;1.30;;
11763;SDS011;5939;56.522;14.950;2023-07-31T14:20:27;2.70;;;1.50;;
11763;SDS011;5939;56.522;14.950;2023-07-31T14:22:53;1.70;;;1.30;;
11763;SDS011;5939;56.522;14.950;2023-07-31T14:25:18;2.07;;;1.43;;
11763;SDS011;5939;56.522;14.950;2023-07-31T14:27:45;2.30;;;1.40;;
11763;SDS011;5939;56.522;14.950;2023-07-31T14:30:11;4.30;;;1.70;;
11763;SDS011;5939;56.522;14.950;2023-07-31T14:32:36;1.53;;;1.30;;
11763;SDS011;5939;56.522;14.950;2023-07-31T14:35:02;2.30;;;1.53;;
11763;SDS011;5939;56.522;14.950;2023-07-31T14:37:36;1.60;;;1.50;;
11763;SDS011;5939;56.522;14.950;2023-07-31T14:40:05;2.83;;;1.97;;
11763;SDS011;5939;56.522;14.950;2023-07-31T14:42:32;3.70;;;1.70;;
11763;SDS011;5939;56.522;14.950;2023-07-31T14:44:59;2.03;;;1.43;;
11763;SDS011;5939;56.522;14.950;2023-07-31T14:47:24;2.23;;;1.67;;
11763;SDS011;5939;56.522;14.950;2023-07-31T14:49:50;2.40;;;1.67;;
11763;SDS011;5939;56.522;14.950;2023-07-31T14:52:15;3.47;;;1.80;;
11763;SDS011;5939;56.522;14.950;2023-07-31T14:54:41;2.50;;;1.70;;
11763;SDS011;5939;56.522;14.950;2023-07-31T14:57:07;2.60;;;1.60;;
11763;SDS011;5939;56.522;14.950;2023-07-31T14:59:33;2.50;;;1.90;;